createdAt,value
2018-11-10T00:02:16.420Z,17.10
2018-11-10T00:04:43.872Z,18.30
2018-11-10T00:07:11.276Z,15.83
2018-11-10T00:09:38.699Z,16.17
2018-11-10T00:12:06.121Z,15.60
2018-11-10T00:14:33.566Z,14.50
2018-11-10T00:17:01.007Z,15.30
2018-11-10T00:19:28.385Z,13.27
2018-11-10T00:21:55.797Z,13.23
2018-11-10T00:24:23.198Z,14.07
2018-11-10T00:26:50.676Z,14.07
2018-11-10T00:29:18.181Z,13.50
2018-11-10T00:31:45.589Z,13.93
2018-11-10T00:34:13.375Z,14.67
2018-11-10T00:36:40.821Z,14.97
2018-11-10T00:39:08.926Z,13.80
2018-11-10T00:41:36.360Z,14.23
2018-11-10T00:44:04.017Z,14.60
2018-11-10T00:46:31.441Z,14.23
2018-11-10T00:48:58.897Z,14.47
2018-11-10T00:51:26.341Z,13.93
2018-11-10T00:53:53.838Z,13.97
2018-11-10T00:56:21.207Z,14.63
2018-11-10T00:58:48.592Z,14.37
2018-11-10T01:01:15.998Z,14.63
2018-11-10T01:03:43.433Z,14.67
2018-11-10T01:06:10.875Z,14.20
2018-11-10T01:08:38.323Z,15.73
2018-11-10T01:11:05.754Z,14.43
2018-11-10T01:13:33.237Z,15.47
2018-11-10T01:16:00.652Z,15.50
2018-11-10T01:18:28.052Z,13.83
2018-11-10T01:20:55.480Z,15.40
2018-11-10T01:23:22.850Z,16.40
2018-11-10T01:25:50.283Z,15.57
2018-11-10T01:28:17.722Z,15.63
2018-11-10T01:30:45.109Z,15.87
2018-11-10T01:33:12.507Z,15.40
2018-11-10T01:35:39.924Z,16.10
2018-11-10T01:38:07.355Z,15.37
2018-11-10T01:40:34.779Z,14.67
2018-11-10T01:43:02.161Z,15.10
2018-11-10T01:45:29.600Z,15.60
2018-11-10T01:47:57.009Z,15.50
2018-11-10T01:50:24.393Z,14.03
2018-11-10T01:52:51.807Z,13.33
2018-11-10T01:55:19.191Z,13.10
2018-11-10T01:57:46.624Z,13.73
2018-11-10T02:00:16.625Z,13.03
2018-11-10T02:02:44.641Z,12.40
2018-11-10T02:05:12.048Z,12.00
2018-11-10T02:07:39.437Z,12.03
2018-11-10T02:10:08.307Z,10.60
2018-11-10T02:12:35.692Z,9.73
2018-11-10T02:15:03.371Z,10.93
2018-11-10T02:17:30.799Z,11.87
2018-11-10T02:19:58.268Z,12.00
2018-11-10T02:22:25.746Z,11.60
2018-11-10T02:24:53.156Z,11.77
2018-11-10T02:27:20.558Z,12.00
2018-11-10T02:29:48.674Z,12.23
2018-11-10T02:32:16.345Z,12.00
2018-11-10T02:34:43.713Z,11.63
2018-11-10T02:37:11.405Z,11.87
2018-11-10T02:39:38.845Z,11.53
2018-11-10T02:42:06.284Z,12.00
2018-11-10T02:44:33.718Z,11.03
2018-11-10T02:47:01.170Z,11.40
2018-11-10T02:49:28.601Z,10.73
2018-11-10T02:51:56.034Z,11.20
2018-11-10T02:54:23.462Z,12.50
2018-11-10T02:56:50.848Z,12.10
2018-11-10T02:59:18.253Z,12.20
2018-11-10T03:01:45.935Z,12.40
2018-11-10T03:04:13.346Z,11.57
2018-11-10T03:06:40.749Z,11.57
2018-11-10T03:09:08.714Z,12.37
2018-11-10T03:11:36.410Z,12.57
2018-11-10T03:14:03.887Z,12.23
2018-11-10T03:16:31.398Z,11.60
2018-11-10T03:18:58.804Z,12.00
2018-11-10T03:21:26.237Z,13.27
2018-11-10T03:23:53.609Z,11.60
2018-11-10T03:26:21.009Z,10.50
2018-11-10T03:28:48.458Z,10.80
2018-11-10T03:31:15.853Z,13.20
2018-11-10T03:33:43.242Z,13.53
2018-11-10T03:36:10.648Z,13.50
2018-11-10T03:38:38.059Z,13.60
2018-11-10T03:41:05.507Z,15.10
2018-11-10T03:43:32.885Z,15.10
2018-11-10T03:46:00.345Z,14.50
2018-11-10T03:48:27.808Z,15.03
2018-11-10T03:50:55.223Z,14.13
2018-11-10T03:53:22.596Z,14.57
2018-11-10T03:55:50.027Z,14.53
2018-11-10T03:58:17.417Z,15.40
2018-11-10T04:00:44.847Z,16.37
2018-11-10T04:03:12.212Z,16.37
2018-11-10T04:05:39.629Z,14.93
2018-11-10T04:08:07.059Z,15.57
2018-11-10T04:10:34.473Z,13.90
2018-11-10T04:13:01.876Z,13.33
2018-11-10T04:15:29.290Z,12.13
2018-11-10T04:17:56.723Z,11.83
2018-11-10T04:20:24.140Z,12.70
2018-11-10T04:22:51.549Z,12.73
2018-11-10T04:25:18.957Z,12.17
2018-11-10T04:27:46.361Z,11.17
2018-11-10T04:30:13.757Z,9.50
2018-11-10T04:32:41.190Z,9.57
2018-11-10T04:35:08.659Z,10.47
2018-11-10T04:37:36.420Z,10.03
2018-11-10T04:40:04.076Z,9.67
2018-11-10T04:42:31.477Z,9.80
2018-11-10T04:44:58.884Z,10.10
2018-11-10T04:47:26.300Z,9.63
2018-11-10T04:49:53.744Z,9.20
2018-11-10T04:52:21.137Z,7.83
2018-11-10T04:57:21.665Z,8.10
2018-11-10T04:59:49.126Z,8.20
2018-11-10T05:02:16.584Z,7.93
2018-11-10T05:04:43.956Z,7.33
2018-11-10T05:07:11.403Z,6.43
2018-11-10T05:09:38.879Z,7.27
2018-11-10T05:12:06.263Z,6.57
2018-11-10T05:14:33.645Z,6.63
2018-11-10T05:17:01.044Z,6.80
2018-11-10T05:19:28.509Z,6.20
2018-11-10T05:21:55.925Z,6.03
2018-11-10T05:24:23.408Z,6.70
2018-11-10T05:26:50.779Z,6.07
2018-11-10T05:29:18.209Z,6.10
2018-11-10T05:31:45.629Z,5.93
2018-11-10T05:34:13.041Z,6.40
2018-11-10T05:36:40.441Z,6.03
2018-11-10T05:39:08.693Z,5.60
2018-11-10T05:41:36.104Z,5.33
2018-11-10T05:44:03.524Z,4.87
2018-11-10T05:46:30.936Z,4.70
2018-11-10T05:48:58.344Z,4.47
2018-11-10T05:51:25.823Z,4.63
2018-11-10T05:53:53.213Z,4.97
2018-11-10T05:56:20.624Z,4.27
2018-11-10T05:58:48.071Z,4.37
2018-11-10T06:01:15.493Z,4.07
2018-11-10T06:03:42.886Z,4.33
2018-11-10T06:06:10.281Z,4.37
2018-11-10T06:08:37.673Z,4.53
2018-11-10T06:11:05.293Z,4.23
2018-11-10T06:13:32.685Z,4.30
2018-11-10T06:16:00.121Z,4.00
2018-11-10T06:18:27.550Z,3.63
2018-11-10T06:20:54.993Z,3.83
2018-11-10T06:23:22.391Z,4.17
2018-11-10T06:25:49.849Z,3.87
2018-11-10T06:28:17.278Z,4.20
2018-11-10T06:30:44.700Z,3.73
2018-11-10T06:33:12.137Z,4.17
2018-11-10T06:35:39.549Z,3.73
2018-11-10T06:38:06.917Z,4.50
2018-11-10T06:40:34.380Z,4.20
2018-11-10T06:43:01.781Z,4.27
2018-11-10T06:45:29.212Z,4.67
2018-11-10T06:47:56.641Z,5.30
2018-11-10T06:50:24.080Z,5.50
2018-11-10T06:52:51.558Z,5.20
2018-11-10T06:55:18.949Z,5.60
2018-11-10T06:57:46.354Z,5.33
2018-11-10T07:00:14.881Z,5.57
2018-11-10T07:02:42.573Z,6.37
2018-11-10T07:05:10.617Z,5.97
2018-11-10T07:07:38.543Z,6.03
2018-11-10T07:10:06.379Z,6.40
2018-11-10T07:12:33.789Z,6.37
2018-11-10T07:15:01.242Z,7.17
2018-11-10T07:17:28.706Z,6.60
2018-11-10T07:19:56.104Z,6.93
2018-11-10T07:22:23.528Z,8.37
2018-11-10T07:24:51.048Z,8.33
2018-11-10T07:27:18.635Z,9.10
2018-11-10T07:29:46.084Z,8.37
2018-11-10T07:32:13.494Z,8.20
2018-11-10T07:34:40.907Z,8.23
2018-11-10T07:37:08.379Z,7.67
2018-11-10T07:39:35.752Z,8.47
2018-11-10T07:42:03.181Z,8.10
2018-11-10T07:44:30.760Z,8.53
2018-11-10T07:46:58.213Z,9.90
2018-11-10T07:49:25.673Z,8.60
2018-11-10T07:51:53.034Z,9.70
2018-11-10T07:54:20.500Z,9.50
2018-11-10T07:56:47.896Z,9.13
2018-11-10T07:59:15.278Z,7.67
2018-11-10T08:01:42.756Z,6.43
2018-11-10T08:04:10.172Z,6.83
2018-11-10T08:06:37.582Z,6.50
2018-11-10T08:09:07.026Z,6.20
2018-11-10T08:11:34.420Z,6.80
2018-11-10T08:14:01.830Z,7.07
2018-11-10T08:16:29.266Z,6.20
2018-11-10T08:18:56.688Z,6.57
2018-11-10T08:21:24.092Z,6.57
2018-11-10T08:23:51.513Z,6.70
2018-11-10T08:26:18.929Z,6.80
2018-11-10T08:28:46.343Z,5.90
2018-11-10T08:31:13.795Z,6.00
2018-11-10T08:33:41.250Z,5.53
2018-11-10T08:36:08.647Z,6.30
2018-11-10T08:38:36.063Z,5.93
2018-11-10T08:41:03.465Z,7.07
2018-11-10T08:43:30.901Z,7.67
2018-11-10T08:45:58.293Z,7.67
2018-11-10T08:48:25.757Z,8.37
2018-11-10T08:50:53.188Z,8.80
2018-11-10T08:53:20.649Z,9.20
2018-11-10T08:55:48.089Z,10.37
2018-11-10T08:58:15.492Z,9.30
2018-11-10T09:00:42.917Z,9.10
2018-11-10T09:03:10.288Z,10.50
2018-11-10T09:05:37.671Z,10.73
2018-11-10T09:08:05.205Z,11.83
2018-11-10T09:10:32.604Z,10.83
2018-11-10T09:13:00.027Z,10.13
2018-11-10T09:15:27.418Z,10.87
2018-11-10T09:17:54.982Z,12.17
2018-11-10T09:20:22.221Z,12.47
2018-11-10T09:22:49.662Z,13.67
2018-11-10T09:25:17.746Z,13.03
2018-11-10T09:27:45.186Z,13.37
2018-11-10T09:30:13.890Z,13.67
2018-11-10T09:32:41.545Z,13.37
2018-11-10T09:35:10.331Z,12.67
2018-11-10T09:37:37.781Z,12.90
2018-11-10T09:40:06.887Z,12.37
2018-11-10T09:42:34.431Z,11.30
2018-11-10T09:45:01.722Z,9.77
2018-11-10T09:47:29.169Z,9.90
2018-11-10T09:49:56.634Z,10.17
2018-11-10T09:52:24.107Z,9.93
2018-11-10T09:54:51.520Z,10.63
2018-11-10T09:57:18.902Z,9.50
2018-11-10T09:59:46.312Z,10.23
2018-11-10T10:02:14.079Z,9.83
2018-11-10T10:04:41.100Z,9.63
2018-11-10T10:07:08.521Z,9.90
2018-11-10T10:09:35.920Z,10.30
2018-11-10T10:12:03.348Z,9.10
2018-11-10T10:14:30.729Z,8.53
2018-11-10T10:16:58.152Z,9.63
2018-11-10T10:19:25.571Z,8.80
2018-11-10T10:21:53.100Z,9.60
2018-11-10T10:24:20.344Z,9.10
2018-11-10T10:26:47.873Z,9.23
2018-11-10T10:29:15.270Z,8.50
2018-11-10T10:31:42.653Z,8.80
2018-11-10T10:34:10.274Z,8.20
2018-11-10T10:36:37.566Z,9.23
2018-11-10T10:39:06.699Z,10.03
2018-11-10T10:41:34.141Z,9.70
2018-11-10T10:44:01.545Z,10.07
2018-11-10T10:46:28.973Z,9.80
2018-11-10T10:48:56.572Z,9.77
2018-11-10T10:51:23.849Z,11.37
2018-11-10T10:53:51.273Z,12.87
2018-11-10T10:56:18.754Z,11.50
2018-11-10T10:58:46.100Z,12.33
2018-11-10T11:01:19.133Z,13.30
2018-11-10T11:03:55.130Z,13.30
2018-11-10T11:06:23.133Z,12.37
2018-11-10T11:08:50.824Z,13.70
2018-11-10T11:11:18.284Z,14.17
2018-11-10T11:13:45.671Z,14.47
2018-11-10T11:16:13.369Z,14.50
2018-11-10T11:18:40.802Z,15.50
2018-11-10T11:21:08.205Z,15.63
2018-11-10T11:23:35.843Z,15.17
2018-11-10T11:26:03.288Z,16.73
2018-11-10T11:28:30.763Z,16.20
2018-11-10T11:30:58.280Z,15.70
2018-11-10T11:33:25.775Z,17.27
2018-11-10T11:35:53.224Z,17.57
2018-11-10T11:38:20.614Z,17.90
2018-11-10T11:40:48.015Z,17.33
2018-11-10T11:43:15.442Z,16.53
2018-11-10T11:45:42.851Z,18.70
2018-11-10T11:48:10.272Z,19.80
2018-11-10T11:50:37.697Z,18.90
2018-11-10T11:53:06.021Z,18.47
2018-11-10T11:55:33.522Z,20.63
2018-11-10T11:58:01.158Z,19.63
2018-11-10T12:00:28.490Z,21.20
2018-11-10T12:02:55.963Z,20.67
2018-11-10T12:05:23.345Z,20.43
2018-11-10T12:07:50.784Z,20.03
2018-11-10T12:10:18.410Z,21.87
2018-11-10T12:12:45.960Z,19.37
2018-11-10T12:15:14.683Z,20.00
2018-11-10T12:17:42.138Z,19.90
2018-11-10T12:20:11.130Z,21.23
2018-11-10T12:22:38.534Z,22.30
2018-11-10T12:25:06.410Z,20.73
2018-11-10T12:27:33.787Z,21.37
2018-11-10T12:30:01.168Z,22.17
2018-11-10T12:32:28.601Z,20.67
2018-11-10T12:34:56.054Z,21.33
2018-11-10T12:37:23.488Z,25.90
2018-11-10T12:39:50.925Z,21.23
2018-11-10T12:42:18.359Z,22.00
2018-11-10T12:44:46.045Z,20.00
2018-11-10T12:47:13.428Z,19.37
2018-11-10T12:49:40.830Z,19.00
2018-11-10T12:52:08.229Z,19.93
2018-11-10T12:54:35.645Z,21.03
2018-11-10T12:57:03.251Z,19.23
2018-11-10T12:59:30.800Z,20.77
2018-11-10T13:01:58.178Z,20.17
2018-11-10T13:04:25.580Z,21.20
2018-11-10T13:06:52.988Z,22.60
2018-11-10T13:09:20.398Z,22.23
2018-11-10T13:11:47.935Z,23.97
2018-11-10T13:14:15.257Z,24.80
2018-11-10T13:16:42.642Z,21.73
2018-11-10T13:19:10.409Z,24.13
2018-11-10T13:21:38.513Z,22.63
2018-11-10T13:24:05.998Z,21.87
2018-11-10T13:26:33.397Z,19.53
2018-11-10T13:29:00.825Z,22.30
2018-11-10T13:31:28.406Z,23.67
2018-11-10T13:33:55.669Z,23.93
2018-11-10T13:36:23.140Z,24.63
2018-11-10T13:38:50.554Z,23.43
2018-11-10T13:41:18.034Z,22.97
2018-11-10T13:43:45.444Z,23.57
2018-11-10T13:46:12.829Z,24.80
2018-11-10T13:48:40.247Z,22.67
2018-11-10T13:51:07.859Z,20.80
2018-11-10T13:53:35.078Z,21.23
2018-11-10T13:56:02.490Z,20.83
2018-11-10T13:58:29.956Z,20.00
2018-11-10T14:00:57.396Z,19.73
2018-11-10T14:03:24.766Z,21.53
2018-11-10T14:05:52.169Z,20.07
2018-11-10T14:08:19.594Z,20.43
2018-11-10T14:10:47.053Z,20.63
2018-11-10T14:13:14.477Z,18.90
2018-11-10T14:15:41.880Z,19.77
2018-11-10T14:18:09.287Z,20.90
2018-11-10T14:20:36.796Z,19.10
2018-11-10T14:23:04.343Z,19.97
2018-11-10T14:25:31.776Z,20.17
2018-11-10T14:27:59.176Z,20.40
2018-11-10T14:30:26.568Z,19.70
2018-11-10T14:32:54.013Z,19.77
2018-11-10T14:35:21.468Z,19.40
2018-11-10T14:37:48.928Z,20.83
2018-11-10T14:40:17.150Z,20.37
2018-11-10T14:42:44.853Z,20.83
2018-11-10T14:45:13.420Z,21.23
2018-11-10T14:47:41.365Z,19.03
2018-11-10T14:50:09.797Z,19.27
2018-11-10T14:52:37.268Z,20.60
2018-11-10T14:55:05.989Z,19.17
2018-11-10T14:57:33.405Z,20.63
2018-11-10T15:00:00.888Z,19.73
2018-11-10T15:02:28.889Z,19.67
2018-11-10T15:04:56.344Z,19.80
2018-11-10T15:07:23.737Z,21.60
2018-11-10T15:09:51.152Z,22.80
2018-11-10T15:12:18.678Z,21.93
2018-11-10T15:14:46.096Z,22.53
2018-11-10T15:17:13.484Z,21.23
2018-11-10T15:19:40.924Z,23.03
2018-11-10T15:22:08.401Z,23.07
2018-11-10T15:24:35.905Z,23.80
2018-11-10T15:27:03.313Z,23.60
2018-11-10T15:29:30.848Z,24.00
2018-11-10T15:31:58.280Z,25.13
2018-11-10T15:34:25.664Z,24.47
2018-11-10T15:36:53.151Z,24.93
2018-11-10T15:39:20.592Z,26.10
2018-11-10T15:41:48.024Z,24.53
2018-11-10T15:44:15.429Z,26.67
2018-11-10T15:46:42.890Z,26.03
2018-11-10T15:49:10.344Z,25.47
2018-11-10T15:51:37.725Z,27.03
2018-11-10T15:54:05.404Z,26.80
2018-11-10T15:56:32.952Z,24.77
2018-11-10T15:59:00.323Z,26.70
2018-11-10T16:01:27.774Z,26.50
2018-11-10T16:03:55.156Z,26.70
2018-11-10T16:06:29.548Z,25.83
2018-11-10T16:08:57.013Z,27.00
2018-11-10T16:11:24.420Z,26.70
2018-11-10T16:13:51.808Z,28.70
2018-11-10T16:16:19.220Z,29.37
2018-11-10T16:18:46.654Z,27.00
2018-11-10T16:21:14.074Z,28.50
2018-11-10T16:23:41.509Z,28.93
2018-11-10T16:26:08.951Z,29.90
2018-11-10T16:28:36.394Z,28.73
2018-11-10T16:31:03.829Z,29.63
2018-11-10T16:33:31.245Z,30.00
2018-11-10T16:35:58.650Z,30.23
2018-11-10T16:38:26.077Z,30.27
2018-11-10T16:40:53.489Z,29.07
2018-11-10T16:43:20.882Z,30.10
2018-11-10T16:45:48.359Z,31.03
2018-11-10T16:48:15.784Z,30.50
2018-11-10T16:50:43.246Z,31.40
2018-11-10T16:53:10.693Z,31.97
2018-11-10T16:55:38.088Z,32.40
2018-11-10T16:58:05.882Z,32.77
2018-11-10T17:00:33.377Z,34.00
2018-11-10T17:03:00.821Z,34.53
2018-11-10T17:05:28.218Z,32.23
2018-11-10T17:07:55.613Z,31.80
2018-11-10T17:10:23.054Z,33.03
2018-11-10T17:12:50.443Z,33.73
2018-11-10T17:15:17.917Z,35.87
2018-11-10T17:17:45.325Z,32.83
2018-11-10T17:20:15.028Z,33.53
2018-11-10T17:22:42.605Z,33.80
2018-11-10T17:25:10.832Z,33.63
2018-11-10T17:27:38.563Z,33.07
2018-11-10T17:30:08.970Z,33.03
2018-11-10T17:32:36.401Z,34.67
2018-11-10T17:35:03.917Z,33.63
2018-11-10T17:37:31.312Z,33.90
2018-11-10T17:39:58.820Z,31.80
2018-11-10T17:42:26.122Z,33.47
2018-11-10T17:44:53.512Z,34.03
2018-11-10T17:47:20.907Z,33.40
2018-11-10T17:49:48.313Z,34.13
2018-11-10T17:52:15.834Z,35.13
2018-11-10T17:54:43.244Z,36.40
2018-11-10T17:57:10.621Z,35.17
2018-11-10T17:59:38.031Z,34.83
2018-11-10T18:02:05.548Z,35.03
2018-11-10T18:04:32.898Z,38.93
2018-11-10T18:07:00.341Z,38.40
2018-11-10T18:09:27.745Z,34.87
2018-11-10T18:11:55.123Z,34.77
2018-11-10T18:14:22.548Z,36.83
2018-11-10T18:16:49.960Z,35.73
2018-11-10T18:19:17.363Z,36.80
2018-11-10T18:21:44.780Z,36.50
2018-11-10T18:24:12.215Z,35.27
2018-11-10T18:26:39.637Z,36.13
2018-11-10T18:29:07.165Z,31.83
2018-11-10T18:31:34.582Z,34.60
2018-11-10T18:34:02.028Z,35.33
2018-11-10T18:36:29.445Z,33.77
2018-11-10T18:38:56.884Z,33.17
2018-11-10T18:41:24.321Z,32.77
2018-11-10T18:43:51.704Z,32.20
2018-11-10T18:46:19.141Z,28.80
2018-11-10T18:48:46.529Z,31.63
2018-11-10T18:51:13.930Z,31.87
2018-11-10T18:53:41.360Z,32.00
2018-11-10T18:56:08.756Z,29.17
2018-11-10T18:58:36.169Z,30.83
2018-11-10T19:01:03.675Z,31.83
2018-11-10T19:03:31.085Z,30.50
2018-11-10T19:05:58.501Z,30.40
2018-11-10T19:08:25.941Z,29.97
2018-11-10T19:10:53.351Z,30.87
2018-11-10T19:13:20.769Z,32.97
2018-11-10T19:15:48.197Z,29.63
2018-11-10T19:18:15.589Z,32.77
2018-11-10T19:20:43.035Z,32.40
2018-11-10T19:23:10.475Z,31.87
2018-11-10T19:25:37.861Z,30.47
2018-11-10T19:28:05.346Z,35.97
2018-11-10T19:30:32.761Z,32.37
2018-11-10T19:33:00.144Z,31.93
2018-11-10T19:35:27.561Z,31.47
2018-11-10T19:37:54.971Z,28.80
2018-11-10T19:40:22.376Z,32.03
2018-11-10T19:42:49.820Z,30.50
2018-11-10T19:45:17.247Z,31.40
2018-11-10T19:47:45.430Z,32.63
2018-11-10T19:50:13.290Z,35.70
2018-11-10T19:52:40.743Z,35.80
2018-11-10T19:55:09.975Z,34.87
2018-11-10T19:57:37.423Z,34.13
2018-11-10T20:00:08.689Z,33.47
2018-11-10T20:02:36.133Z,33.90
2018-11-10T20:05:04.053Z,32.47
2018-11-10T20:07:31.480Z,34.80
2018-11-10T20:09:58.913Z,34.03
2018-11-10T20:12:26.321Z,34.50
2018-11-10T20:14:53.731Z,35.77
2018-11-10T20:17:21.113Z,33.93
2018-11-10T20:19:48.517Z,36.03
2018-11-10T20:22:15.956Z,36.13
2018-11-10T20:24:43.340Z,34.97
2018-11-10T20:27:10.805Z,36.70
2018-11-10T20:29:38.213Z,32.83
2018-11-10T20:32:05.642Z,33.90
2018-11-10T20:34:33.072Z,33.40
2018-11-10T20:37:00.514Z,36.13
2018-11-10T20:39:27.897Z,36.03
2018-11-10T20:41:55.336Z,34.40
2018-11-10T20:44:22.736Z,33.43
2018-11-10T20:46:50.129Z,34.37
2018-11-10T20:49:17.588Z,35.67
2018-11-10T20:51:44.983Z,33.33
2018-11-10T20:54:12.408Z,35.73
2018-11-10T20:56:39.780Z,32.90
2018-11-10T20:59:07.230Z,32.10
2018-11-10T21:01:34.653Z,32.93
2018-11-10T21:04:02.068Z,33.87
2018-11-10T21:06:29.533Z,32.23
2018-11-10T21:08:56.913Z,31.10
2018-11-10T21:11:24.372Z,34.13
2018-11-10T21:13:51.781Z,31.30
2018-11-10T21:16:19.191Z,32.53
2018-11-10T21:18:46.571Z,31.73
2018-11-10T21:21:14.033Z,32.47
2018-11-10T21:23:41.415Z,29.97
2018-11-10T21:26:08.913Z,32.90
2018-11-10T21:28:36.324Z,35.17
2018-11-10T21:31:03.923Z,33.07
2018-11-10T21:33:31.434Z,34.77
2018-11-10T21:35:58.780Z,27.13
2018-11-10T21:38:26.198Z,32.63
2018-11-10T21:40:53.577Z,34.57
2018-11-10T21:43:20.968Z,33.03
2018-11-10T21:45:48.409Z,35.20
2018-11-10T21:48:15.786Z,31.93
2018-11-10T21:50:43.251Z,34.47
2018-11-10T21:53:10.666Z,34.60
2018-11-10T21:55:38.084Z,36.53
2018-11-10T21:58:05.513Z,37.07
2018-11-10T22:00:33.022Z,37.40
2018-11-10T22:03:00.404Z,37.60
2018-11-10T22:05:27.794Z,35.87
2018-11-10T22:07:55.224Z,36.23
2018-11-10T22:10:22.627Z,35.20
2018-11-10T22:12:50.047Z,35.03
2018-11-10T22:15:18.989Z,36.10
2018-11-10T22:17:46.557Z,36.03
2018-11-10T22:20:15.226Z,36.17
2018-11-10T22:22:42.778Z,36.17
2018-11-10T22:25:11.036Z,35.70
2018-11-10T22:27:39.612Z,35.70
2018-11-10T22:30:08.237Z,37.80
2018-11-10T22:32:35.653Z,33.70
2018-11-10T22:35:03.113Z,36.00
2018-11-10T22:37:30.493Z,36.50
2018-11-10T22:39:57.882Z,37.93
2018-11-10T22:42:25.284Z,35.57
2018-11-10T22:44:52.699Z,35.17
2018-11-10T22:47:20.176Z,34.53
2018-11-10T22:49:47.605Z,37.30
2018-11-10T22:52:15.010Z,36.60
2018-11-10T22:54:42.452Z,37.07
2018-11-10T22:57:09.909Z,35.63
2018-11-10T22:59:37.293Z,36.43
2018-11-10T23:02:05.080Z,37.37
2018-11-10T23:04:32.557Z,36.93
2018-11-10T23:07:00.005Z,36.73
2018-11-10T23:09:27.384Z,35.77
2018-11-10T23:11:55.924Z,40.57
2018-11-10T23:14:23.279Z,37.00
2018-11-10T23:16:50.689Z,37.30
2018-11-10T23:19:18.138Z,39.27
2018-11-10T23:21:45.596Z,36.43
2018-11-10T23:24:12.990Z,39.17
2018-11-10T23:26:40.610Z,38.37
2018-11-10T23:29:08.134Z,38.27
2018-11-10T23:31:35.533Z,39.23
2018-11-10T23:34:02.982Z,40.17
2018-11-10T23:36:30.418Z,38.60
2018-11-10T23:38:57.856Z,37.43
2018-11-10T23:41:25.286Z,38.60
2018-11-10T23:43:52.712Z,41.07
2018-11-10T23:46:20.089Z,39.83
2018-11-10T23:48:47.518Z,39.37
2018-11-10T23:51:14.924Z,39.87
2018-11-10T23:53:42.344Z,40.53
2018-11-10T23:56:09.745Z,39.90
2018-11-10T23:58:37.128Z,39.83
